createdAt,value
2023-05-03T00:00:45.391Z,10.70
2023-05-03T00:03:13.560Z,10.60
2023-05-03T00:05:40.614Z,10.60
2023-05-03T00:08:07.660Z,10.60
2023-05-03T00:10:34.461Z,10.60
2023-05-03T00:13:01.184Z,10.60
2023-05-03T00:15:28.014Z,10.50
2023-05-03T00:17:55.416Z,10.50
2023-05-03T00:20:25.063Z,10.50
2023-05-03T00:22:52.277Z,10.50
2023-05-03T00:25:18.990Z,10.50
2023-05-03T00:27:45.782Z,10.40
2023-05-03T00:30:12.995Z,10.40
2023-05-03T00:32:39.910Z,10.30
2023-05-03T00:35:07.309Z,10.30
2023-05-03T00:37:34.214Z,10.20
2023-05-03T00:40:01.246Z,10.20
2023-05-03T00:42:28.257Z,10.20
2023-05-03T00:44:55.992Z,10.20
2023-05-03T00:47:23.071Z,10.20
2023-05-03T00:49:49.997Z,10.10
2023-05-03T00:52:16.717Z,10.10
2023-05-03T00:54:46.164Z,10.10
2023-05-03T00:57:13.295Z,10.00
2023-05-03T00:59:40.047Z,10.00
2023-05-03T01:02:06.864Z,10.00
2023-05-03T01:04:37.030Z,9.90
2023-05-03T01:07:24.126Z,9.90
2023-05-03T01:09:51.033Z,9.90
2023-05-03T01:12:17.718Z,9.80
2023-05-03T01:14:49.786Z,9.80
2023-05-03T01:17:18.300Z,9.80
2023-05-03T01:19:54.101Z,9.80
2023-05-03T01:22:38.779Z,9.80
2023-05-03T01:25:12.479Z,9.70
2023-05-03T01:27:40.034Z,9.70
2023-05-03T01:30:08.081Z,9.70
2023-05-03T01:32:40.935Z,9.70
2023-05-03T01:35:07.810Z,9.70
2023-05-03T01:37:37.441Z,9.70
2023-05-03T01:40:10.462Z,9.70
2023-05-03T01:42:37.865Z,9.60
2023-05-03T01:45:04.950Z,9.60
2023-05-03T01:47:31.767Z,9.60
2023-05-03T01:49:59.388Z,9.60
2023-05-03T01:52:26.740Z,9.60
2023-05-03T01:54:53.516Z,9.60
2023-05-03T01:57:23.368Z,9.50
2023-05-03T01:59:50.244Z,9.50
2023-05-03T02:02:17.096Z,9.50
2023-05-03T02:04:43.891Z,9.40
2023-05-03T02:07:10.719Z,9.40
2023-05-03T02:09:37.461Z,9.40
2023-05-03T02:12:04.231Z,9.40
2023-05-03T02:14:33.000Z,9.40
2023-05-03T02:17:04.627Z,9.30
2023-05-03T02:19:31.494Z,9.30
2023-05-03T02:21:58.347Z,9.30
2023-05-03T02:24:27.433Z,9.30
2023-05-03T02:26:56.442Z,9.30
2023-05-03T02:29:23.174Z,9.20
2023-05-03T02:31:50.053Z,9.20
2023-05-03T02:34:17.710Z,9.20
2023-05-03T02:36:44.859Z,9.20
2023-05-03T02:39:11.647Z,9.20
2023-05-03T02:41:38.434Z,9.20
2023-05-03T02:44:05.258Z,9.10
2023-05-03T02:46:34.589Z,9.10
2023-05-03T02:49:01.396Z,9.10
2023-05-03T02:51:28.158Z,9.10
2023-05-03T02:53:55.007Z,9.10
2023-05-03T02:56:28.454Z,9.10
2023-05-03T02:58:55.598Z,9.00
2023-05-03T03:01:25.364Z,9.00
2023-05-03T03:03:52.346Z,9.00
2023-05-03T03:06:19.515Z,9.00
2023-05-03T03:08:48.690Z,9.00
2023-05-03T03:11:15.504Z,9.00
2023-05-03T03:13:42.432Z,8.90
2023-05-03T03:16:11.467Z,8.90
2023-05-03T03:18:40.849Z,8.90
2023-05-03T03:21:12.116Z,8.90
2023-05-03T03:23:38.974Z,8.90
2023-05-03T03:26:06.267Z,8.90
2023-05-03T03:28:36.652Z,8.80
2023-05-03T03:31:08.798Z,8.80
2023-05-03T03:33:38.276Z,8.80
2023-05-03T03:36:11.790Z,8.80
2023-05-03T03:38:44.117Z,8.80
2023-05-03T03:41:11.468Z,8.80
2023-05-03T03:43:41.182Z,8.70
2023-05-03T03:46:13.177Z,8.70
2023-05-03T03:48:40.185Z,8.70
2023-05-03T03:51:09.292Z,8.70
2023-05-03T03:53:44.927Z,8.70
2023-05-03T03:56:12.530Z,8.70
2023-05-03T03:58:40.802Z,8.60
2023-05-03T04:01:12.119Z,8.60
2023-05-03T04:03:41.918Z,8.60
2023-05-03T04:06:09.414Z,8.60
2023-05-03T04:08:36.648Z,8.50
2023-05-03T04:11:03.554Z,8.50
2023-05-03T04:13:35.106Z,8.50
2023-05-03T04:16:06.207Z,8.50
2023-05-03T04:18:36.745Z,8.50
2023-05-03T04:21:04.813Z,8.50
2023-05-03T04:23:31.771Z,8.40
2023-05-03T04:26:02.635Z,8.50
2023-05-03T04:28:33.938Z,8.40
2023-05-03T04:31:00.920Z,8.40
2023-05-03T04:33:32.711Z,8.40
2023-05-03T04:36:02.938Z,8.40
2023-05-03T04:38:29.994Z,8.40
2023-05-03T04:40:59.271Z,8.40
2023-05-03T04:43:32.935Z,8.40
2023-05-03T04:46:06.417Z,8.40
2023-05-03T04:48:38.802Z,8.40
2023-05-03T04:51:10.664Z,8.40
2023-05-03T04:53:38.689Z,8.40
2023-05-03T04:56:12.945Z,8.40
2023-05-03T04:58:41.310Z,8.50
2023-05-03T05:01:08.579Z,8.40
2023-05-03T05:03:35.864Z,8.50
2023-05-03T05:06:09.882Z,8.50
2023-05-03T05:08:40.958Z,8.50
2023-05-03T05:11:13.063Z,8.50
2023-05-03T05:13:40.012Z,8.60
2023-05-03T05:16:06.804Z,8.60
2023-05-03T05:18:35.007Z,8.70
2023-05-03T05:21:04.040Z,8.70
2023-05-03T05:23:33.102Z,8.70
2023-05-03T05:26:02.836Z,8.80
2023-05-03T05:28:33.783Z,8.80
2023-05-03T05:31:01.478Z,8.80
2023-05-03T05:33:28.924Z,8.80
2023-05-03T05:35:56.675Z,8.90
2023-05-03T05:38:25.618Z,8.90
2023-05-03T05:40:57.095Z,8.90
2023-05-03T05:43:24.179Z,8.90
2023-05-03T05:45:51.149Z,9.00
2023-05-03T05:48:19.132Z,9.00
2023-05-03T05:50:46.530Z,9.00
2023-05-03T05:53:17.531Z,9.00
2023-05-03T05:55:51.413Z,9.00
2023-05-03T05:58:18.814Z,9.00
2023-05-03T06:00:52.664Z,9.10
2023-05-03T06:03:19.895Z,9.10
2023-05-03T06:05:49.462Z,9.10
2023-05-03T06:08:18.729Z,9.10
2023-05-03T06:10:45.653Z,9.10
2023-05-03T06:13:12.531Z,9.20
2023-05-03T06:15:40.911Z,9.20
2023-05-03T06:18:07.872Z,9.20
2023-05-03T06:20:34.757Z,9.20
2023-05-03T06:23:02.428Z,9.30
2023-05-03T06:25:31.710Z,9.40
2023-05-03T06:27:58.812Z,9.40
2023-05-03T06:30:31.143Z,9.50
2023-05-03T06:33:06.916Z,9.60
2023-05-03T06:35:35.690Z,9.60
2023-05-03T06:38:02.876Z,9.60
2023-05-03T06:40:29.690Z,9.60
2023-05-03T06:42:56.592Z,9.60
2023-05-03T06:45:34.722Z,9.70
2023-05-03T06:48:01.700Z,9.70
2023-05-03T06:50:28.678Z,9.80
2023-05-03T06:52:55.812Z,9.90
2023-05-03T06:55:22.641Z,9.90
2023-05-03T06:57:49.458Z,10.00
2023-05-03T07:00:19.449Z,10.00
2023-05-03T07:02:46.362Z,10.00
2023-05-03T07:05:13.264Z,10.10
2023-05-03T07:07:42.438Z,10.20
2023-05-03T07:10:09.191Z,10.20
2023-05-03T07:12:36.086Z,10.30
2023-05-03T07:15:02.872Z,10.30
2023-05-03T07:17:32.454Z,10.30
2023-05-03T07:20:00.688Z,10.40
2023-05-03T07:22:27.987Z,10.40
2023-05-03T07:24:55.714Z,10.40
2023-05-03T07:27:22.710Z,10.50
2023-05-03T07:29:49.607Z,10.50
2023-05-03T07:32:16.675Z,10.60
2023-05-03T07:34:43.515Z,10.70
2023-05-03T07:37:10.283Z,10.70
2023-05-03T07:39:39.343Z,10.80
2023-05-03T07:42:06.284Z,10.80
2023-05-03T07:44:33.055Z,10.80
2023-05-03T07:47:00.052Z,10.90
2023-05-03T07:49:26.847Z,10.90
2023-05-03T07:51:53.717Z,11.00
2023-05-03T07:54:20.810Z,11.10
2023-05-03T07:56:47.733Z,11.20
2023-05-03T07:59:14.698Z,11.30
2023-05-03T08:01:41.663Z,11.30
2023-05-03T08:04:11.126Z,11.50
2023-05-03T08:06:38.886Z,11.60
2023-05-03T08:09:06.011Z,11.70
2023-05-03T08:11:36.733Z,11.80
2023-05-03T08:14:03.638Z,12.00
2023-05-03T08:16:31.158Z,12.30
2023-05-03T08:18:58.202Z,12.60
2023-05-03T08:21:26.194Z,12.90
2023-05-03T08:23:53.306Z,13.30
2023-05-03T08:26:22.047Z,13.80
2023-05-03T08:28:48.995Z,14.50
2023-05-03T08:31:18.202Z,15.50
2023-05-03T08:33:47.650Z,16.80
2023-05-03T08:36:14.982Z,17.50
2023-05-03T08:38:47.687Z,18.00
2023-05-03T08:41:21.115Z,18.90
2023-05-03T08:43:52.739Z,19.50
2023-05-03T08:46:20.765Z,20.00
2023-05-03T08:48:55.433Z,20.50
2023-05-03T08:51:24.410Z,21.00
2023-05-03T08:53:52.528Z,21.50
2023-05-03T08:56:41.493Z,22.00
2023-05-03T08:59:09.284Z,22.10
2023-05-03T09:01:37.741Z,22.40
2023-05-03T09:04:05.863Z,22.80
2023-05-03T09:06:33.501Z,23.00
2023-05-03T09:09:07.400Z,23.50
2023-05-03T09:11:39.721Z,24.00
2023-05-03T09:14:18.027Z,24.30
2023-05-03T09:16:46.619Z,24.50
2023-05-03T09:19:15.775Z,24.50
2023-05-03T09:21:45.433Z,23.40
2023-05-03T09:24:19.757Z,22.60
2023-05-03T09:26:48.771Z,21.90
2023-05-03T09:29:35.978Z,23.10
2023-05-03T09:32:08.646Z,24.10
2023-05-03T09:34:40.801Z,24.60
2023-05-03T09:37:08.290Z,25.00
2023-05-03T09:39:36.983Z,25.20
2023-05-03T09:42:16.062Z,24.40
2023-05-03T09:44:51.901Z,23.80
2023-05-03T09:47:25.496Z,23.80
2023-05-03T09:49:54.793Z,24.20
2023-05-03T09:52:22.721Z,23.90
2023-05-03T09:54:51.536Z,22.90
2023-05-03T09:57:18.652Z,22.10
2023-05-03T09:59:50.774Z,21.90
2023-05-03T10:02:18.222Z,21.70
2023-05-03T10:04:51.211Z,21.70
2023-05-03T10:07:23.183Z,21.60
2023-05-03T10:09:50.589Z,21.90
2023-05-03T10:12:19.119Z,21.00
2023-05-03T10:14:48.863Z,21.50
2023-05-03T10:17:29.229Z,20.80
2023-05-03T10:20:14.974Z,19.60
2023-05-03T10:23:06.923Z,19.70
2023-05-03T10:25:35.918Z,19.60
2023-05-03T10:28:06.163Z,19.20
2023-05-03T10:30:42.083Z,18.80
2023-05-03T10:33:17.843Z,18.50
2023-05-03T10:35:57.420Z,18.40
2023-05-03T10:38:32.651Z,18.20
2023-05-03T10:41:03.354Z,18.40
2023-05-03T10:43:33.378Z,18.40
2023-05-03T10:46:01.810Z,18.50
2023-05-03T10:48:29.876Z,18.60
2023-05-03T10:50:57.741Z,18.50
2023-05-03T10:53:37.588Z,18.40
2023-05-03T10:56:08.069Z,18.10
2023-05-03T10:58:46.296Z,18.00
2023-05-03T11:01:15.764Z,17.70
2023-05-03T11:03:59.942Z,17.60
2023-05-03T11:06:49.541Z,17.50
2023-05-03T11:09:20.046Z,18.00
2023-05-03T11:11:46.896Z,18.40
2023-05-03T11:14:14.159Z,18.00
2023-05-03T11:16:48.078Z,17.80
2023-05-03T11:19:18.147Z,17.60
2023-05-03T11:21:46.961Z,17.50
2023-05-03T11:24:16.789Z,17.50
2023-05-03T11:26:46.167Z,17.00
2023-05-03T11:29:14.593Z,16.90
2023-05-03T11:31:43.188Z,17.10
2023-05-03T11:34:12.066Z,17.80
2023-05-03T11:36:40.733Z,19.30
2023-05-03T11:39:08.674Z,20.20
2023-05-03T11:41:35.917Z,20.60
2023-05-03T11:44:14.971Z,21.30
2023-05-03T11:46:46.881Z,21.60
2023-05-03T11:49:21.382Z,21.90
2023-05-03T11:51:50.933Z,22.30
2023-05-03T11:54:28.030Z,22.40
2023-05-03T11:57:11.239Z,22.60
2023-05-03T11:59:40.186Z,23.10
2023-05-03T12:02:14.758Z,23.60
2023-05-03T12:04:46.926Z,23.50
2023-05-03T12:07:19.541Z,23.80
2023-05-03T12:10:03.372Z,23.30
2023-05-03T12:12:42.077Z,22.80
2023-05-03T12:15:13.294Z,22.50
2023-05-03T12:17:45.706Z,22.10
2023-05-03T12:22:56.725Z,21.40
2023-05-03T12:25:27.296Z,20.70
2023-05-03T12:28:17.733Z,20.20
2023-05-03T12:30:46.637Z,20.00
2023-05-03T12:33:15.988Z,19.70
2023-05-03T12:35:46.832Z,19.30
2023-05-03T12:38:23.301Z,19.20
2023-05-03T12:40:54.530Z,19.20
2023-05-03T12:43:23.950Z,19.20
2023-05-03T12:46:01.507Z,19.40
2023-05-03T12:48:36.835Z,19.60
2023-05-03T12:51:18.580Z,19.60
2023-05-03T12:53:54.338Z,19.40
2023-05-03T12:56:25.302Z,19.10
2023-05-03T12:59:14.996Z,18.90
2023-05-03T13:04:39.926Z,18.60
2023-05-03T13:07:01.270Z,18.40
2023-05-03T13:09:38.610Z,18.30
2023-05-03T13:12:20.355Z,18.30
2023-05-03T13:14:48.782Z,18.40
2023-05-03T13:17:16.131Z,18.40
2023-05-03T13:19:50.137Z,18.30
2023-05-03T13:22:19.722Z,18.30
2023-05-03T13:24:49.452Z,18.30
2023-05-03T13:27:17.910Z,18.30
2023-05-03T13:29:49.382Z,18.30
2023-05-03T13:32:19.211Z,18.20
2023-05-03T13:34:48.338Z,18.10
2023-05-03T13:37:18.461Z,18.00
2023-05-03T13:39:46.492Z,17.80
2023-05-03T13:42:13.502Z,17.80
2023-05-03T13:44:45.994Z,17.80
2023-05-03T13:47:15.679Z,18.00
2023-05-03T13:49:42.736Z,18.80
2023-05-03T13:52:12.008Z,20.50
2023-05-03T13:54:38.946Z,22.80
2023-05-03T13:57:06.121Z,24.30
2023-05-03T13:59:32.999Z,25.30
2023-05-03T14:02:02.392Z,27.90
2023-05-03T14:04:30.782Z,30.00
2023-05-03T14:07:03.293Z,31.60
2023-05-03T14:09:32.625Z,32.80
2023-05-03T14:12:03.644Z,33.60
2023-05-03T14:14:30.677Z,33.90
2023-05-03T14:16:59.854Z,34.90
2023-05-03T14:19:27.142Z,35.50
2023-05-03T14:21:59.390Z,36.20
2023-05-03T14:24:26.936Z,36.70
2023-05-03T14:26:53.881Z,36.50
2023-05-03T14:29:21.234Z,35.80
2023-05-03T14:31:50.600Z,34.60
2023-05-03T14:34:17.747Z,33.80
2023-05-03T14:36:44.629Z,34.00
2023-05-03T14:39:14.797Z,32.20
2023-05-03T14:41:47.969Z,30.60
2023-05-03T14:44:14.920Z,29.30
2023-05-03T14:46:41.908Z,28.00
2023-05-03T14:49:10.963Z,27.60
2023-05-03T14:51:37.802Z,27.20
2023-05-03T14:54:04.847Z,26.70
2023-05-03T14:56:32.250Z,26.30
2023-05-03T14:59:01.930Z,26.10
2023-05-03T15:01:31.014Z,25.80
2023-05-03T15:04:00.256Z,25.50
2023-05-03T15:06:32.242Z,26.60
2023-05-03T15:08:59.622Z,25.60
2023-05-03T15:11:27.809Z,25.00
2023-05-03T15:13:54.827Z,24.40
2023-05-03T15:16:34.687Z,24.50
2023-05-03T15:19:03.472Z,26.50
2023-05-03T15:21:30.618Z,28.10
2023-05-03T15:23:58.047Z,28.30
2023-05-03T15:26:25.007Z,28.10
2023-05-03T15:28:52.114Z,27.00
2023-05-03T15:31:19.408Z,25.70
2023-05-03T15:33:48.750Z,24.50
2023-05-03T15:36:17.890Z,23.80
2023-05-03T15:38:45.055Z,23.00
2023-05-03T15:41:12.119Z,22.20
2023-05-03T15:43:41.251Z,21.80
2023-05-03T15:46:08.217Z,21.50
2023-05-03T15:48:35.371Z,21.20
2023-05-03T15:51:02.329Z,20.90
2023-05-03T15:53:29.864Z,20.60
2023-05-03T15:56:02.311Z,20.40
2023-05-03T15:58:31.845Z,20.20
2023-05-03T16:01:01.571Z,19.90
2023-05-03T16:03:29.635Z,19.80
2023-05-03T16:05:56.802Z,19.70
2023-05-03T16:08:26.396Z,19.60
2023-05-03T16:10:53.346Z,19.40
2023-05-03T16:13:20.389Z,19.20
2023-05-03T16:15:48.221Z,19.20
2023-05-03T16:18:15.267Z,19.10
2023-05-03T16:20:42.204Z,19.00
2023-05-03T16:23:09.235Z,18.80
2023-05-03T16:25:36.233Z,18.70
2023-05-03T16:28:03.115Z,18.70
2023-05-03T16:30:30.090Z,18.60
2023-05-03T16:33:04.871Z,18.40
2023-05-03T16:35:31.834Z,18.30
2023-05-03T16:37:58.857Z,18.30
2023-05-03T16:40:26.223Z,18.20
2023-05-03T16:42:58.092Z,18.10
2023-05-03T16:45:25.058Z,18.10
2023-05-03T16:47:52.026Z,18.00
2023-05-03T16:50:20.137Z,18.00
2023-05-03T16:52:50.607Z,17.90
2023-05-03T16:55:22.705Z,17.80
2023-05-03T16:57:49.690Z,17.80
2023-05-03T17:00:20.892Z,17.70
2023-05-03T17:02:51.258Z,17.60
2023-05-03T17:05:20.208Z,17.50
2023-05-03T17:07:49.364Z,17.50
2023-05-03T17:10:16.534Z,17.40
2023-05-03T17:12:47.473Z,17.40
2023-05-03T17:15:19.116Z,17.30
2023-05-03T17:17:48.529Z,17.20
2023-05-03T17:20:18.575Z,17.20
2023-05-03T17:22:45.479Z,17.10
2023-05-03T17:25:12.410Z,17.10
2023-05-03T17:27:43.858Z,17.00
2023-05-03T17:30:11.418Z,17.00
2023-05-03T17:32:40.603Z,17.00
2023-05-03T17:35:11.392Z,17.00
2023-05-03T17:37:38.633Z,16.90
2023-05-03T17:40:08.812Z,16.80
2023-05-03T17:42:35.925Z,16.80
2023-05-03T17:45:04.376Z,16.80
2023-05-03T17:47:31.892Z,16.70
2023-05-03T17:50:03.451Z,16.60
2023-05-03T17:52:32.572Z,16.60
2023-05-03T17:54:59.425Z,16.50
2023-05-03T17:57:28.645Z,16.40
2023-05-03T17:59:57.796Z,16.40
2023-05-03T18:02:24.744Z,16.30
2023-05-03T18:04:51.587Z,16.30
2023-05-03T18:07:18.572Z,16.20
2023-05-03T18:09:51.598Z,16.10
2023-05-03T18:12:18.630Z,16.10
2023-05-03T18:14:45.472Z,16.00
2023-05-03T18:17:12.437Z,16.00
2023-05-03T18:19:44.412Z,15.90
2023-05-03T18:22:18.262Z,15.90
2023-05-03T18:24:52.746Z,15.90
2023-05-03T18:27:24.612Z,15.80
2023-05-03T18:29:54.293Z,15.80
2023-05-03T18:32:23.602Z,15.80
2023-05-03T18:34:50.801Z,15.70
2023-05-03T18:37:18.004Z,15.60
2023-05-03T18:39:44.937Z,15.60
2023-05-03T18:42:15.579Z,15.50
2023-05-03T18:44:43.044Z,15.50
2023-05-03T18:47:12.851Z,15.40
2023-05-03T18:49:45.868Z,15.30
2023-05-03T18:52:15.626Z,15.30
2023-05-03T18:54:42.589Z,15.20
2023-05-03T18:57:12.290Z,15.20
2023-05-03T18:59:45.944Z,15.10
2023-05-03T19:02:19.920Z,15.10
2023-05-03T19:04:47.384Z,15.10
2023-05-03T19:07:14.384Z,15.00
2023-05-03T19:09:41.413Z,15.00
2023-05-03T19:12:08.608Z,14.90
2023-05-03T19:14:40.929Z,14.80
2023-05-03T19:17:08.393Z,14.80
2023-05-03T19:19:35.569Z,14.80
2023-05-03T19:22:05.014Z,14.70
2023-05-03T19:24:31.800Z,14.70
2023-05-03T19:26:58.812Z,14.70
2023-05-03T19:29:27.180Z,14.60
2023-05-03T19:31:54.498Z,14.60
2023-05-03T19:34:23.361Z,14.50
2023-05-03T19:36:50.331Z,14.50
2023-05-03T19:39:17.195Z,14.40
2023-05-03T19:41:47.401Z,14.30
2023-05-03T19:44:14.218Z,14.30
2023-05-03T19:46:41.172Z,14.30
2023-05-03T19:49:08.061Z,14.30
2023-05-03T19:51:34.951Z,14.20
2023-05-03T19:54:04.659Z,14.10
2023-05-03T19:56:31.447Z,14.10
2023-05-03T19:58:58.335Z,14.10
2023-05-03T20:01:25.226Z,14.10
2023-05-03T20:03:53.861Z,14.00
2023-05-03T20:06:22.151Z,14.00
2023-05-03T20:08:51.085Z,13.90
2023-05-03T20:11:20.698Z,13.90
2023-05-03T20:13:47.696Z,13.80
2023-05-03T20:16:14.980Z,13.70
2023-05-03T20:18:42.093Z,13.70
2023-05-03T20:21:09.540Z,13.70
2023-05-03T20:23:36.303Z,13.60
2023-05-03T20:26:03.081Z,13.50
2023-05-03T20:28:32.327Z,13.50
2023-05-03T20:30:59.181Z,13.40
2023-05-03T20:33:26.185Z,13.30
2023-05-03T20:35:53.204Z,13.30
2023-05-03T20:38:20.229Z,13.30
2023-05-03T20:40:46.969Z,13.30
2023-05-03T20:43:16.372Z,13.30
2023-05-03T20:45:43.254Z,13.20
2023-05-03T20:48:10.130Z,13.20
2023-05-03T20:50:36.986Z,13.20
2023-05-03T20:53:03.958Z,13.20
2023-05-03T20:55:31.005Z,13.10
2023-05-03T20:57:57.875Z,13.10
2023-05-03T21:00:24.745Z,13.10
2023-05-03T21:02:53.766Z,13.00
2023-05-03T21:05:21.813Z,13.00
2023-05-03T21:07:48.885Z,13.00
2023-05-03T21:10:15.805Z,12.90
2023-05-03T21:12:44.990Z,12.90
2023-05-03T21:15:11.893Z,12.80
2023-05-03T21:17:38.924Z,12.80
2023-05-03T21:20:08.438Z,12.80
2023-05-03T21:22:39.745Z,12.80
2023-05-03T21:25:06.876Z,12.80
2023-05-03T21:27:33.675Z,12.70
2023-05-03T21:30:01.504Z,12.60
2023-05-03T21:32:28.743Z,12.60
2023-05-03T21:34:55.563Z,12.60
2023-05-03T21:37:24.792Z,12.60
2023-05-03T21:40:01.527Z,12.50
2023-05-03T21:42:29.610Z,12.50
2023-05-03T21:44:56.293Z,12.40
2023-05-03T21:47:23.081Z,12.40
2023-05-03T21:49:51.436Z,12.40
2023-05-03T21:52:20.656Z,12.40
2023-05-03T21:54:52.141Z,12.40
2023-05-03T21:57:19.076Z,12.40
2023-05-03T21:59:46.645Z,12.40
2023-05-03T22:02:13.384Z,12.30
2023-05-03T22:04:43.479Z,12.30
2023-05-03T22:07:10.253Z,12.30
2023-05-03T22:09:36.985Z,12.30
2023-05-03T22:12:19.124Z,12.20
2023-05-03T22:14:49.926Z,12.20
2023-05-03T22:17:16.734Z,12.20
2023-05-03T22:19:43.512Z,12.10
2023-05-03T22:22:10.477Z,12.10
2023-05-03T22:24:37.206Z,12.10
2023-05-03T22:27:04.042Z,12.10
2023-05-03T22:29:32.962Z,12.00
2023-05-03T22:31:59.907Z,12.00
2023-05-03T22:34:29.226Z,12.00
2023-05-03T22:36:56.057Z,11.90
2023-05-03T22:39:22.794Z,11.90
2023-05-03T22:41:49.510Z,11.90
2023-05-03T22:44:16.288Z,11.90
2023-05-03T22:46:42.965Z,11.80
2023-05-03T22:49:11.822Z,11.80
2023-05-03T22:51:38.658Z,11.80
2023-05-03T22:54:05.477Z,11.80
2023-05-03T22:56:32.281Z,11.70
2023-05-03T22:58:59.053Z,11.70
2023-05-03T23:01:28.612Z,11.70
2023-05-03T23:03:59.390Z,11.60
2023-05-03T23:06:26.269Z,11.60
2023-05-03T23:08:53.012Z,11.60
2023-05-03T23:11:21.021Z,11.60
2023-05-03T23:13:50.177Z,11.50
2023-05-03T23:16:16.972Z,11.50
2023-05-03T23:18:43.731Z,11.50
2023-05-03T23:21:12.790Z,11.50
2023-05-03T23:27:39.230Z,11.50
2023-05-03T23:30:07.219Z,11.50
2023-05-03T23:32:34.506Z,11.50
2023-05-03T23:35:01.827Z,11.50
2023-05-03T23:37:28.704Z,11.50
2023-05-03T23:39:58.132Z,11.50
2023-05-03T23:42:24.844Z,11.50
2023-05-03T23:44:55.323Z,11.50
2023-05-03T23:47:23.161Z,11.50
2023-05-03T23:49:49.910Z,11.40
2023-05-03T23:52:20.379Z,11.50
2023-05-03T23:54:47.454Z,11.40
2023-05-03T23:57:14.221Z,11.40
2023-05-03T23:59:40.982Z,11.40
